Time;durP1;ratioP1;P1;durP2;ratioP2;P2;SDS_P1;SDS_P2;PMS_P1;PMS_P2;Temp;Humidity;BMP_temperature;BMP_pressure;BME280_temperature;BME280_humidity;BME280_pressure;Samples;Min_cycle;Max_cycle;Signal;HPM_P1;HPM_P2
2022/09/23 00:01:28;;;;;;;7.00;2.50;;;;;;;;;;5021425;28;20030;-80
2022/09/23 00:03:55;;;;;;;8.88;2.78;;;;;;;;;;5029172;28;20109;-80
2022/09/23 00:06:22;;;;;;;7.45;2.55;;;;;;;;;;5028197;28;20052;-79
2022/09/23 00:08:49;;;;;;;6.25;1.98;;;;;;;;;;5019490;28;20434;-80
2022/09/23 00:11:16;;;;;;;6.03;2.20;;;;;;;;;;5024795;28;20686;-80
2022/09/23 00:13:43;;;;;;;6.95;1.70;;;;;;;;;;5027769;28;20038;-80
2022/09/23 00:16:10;;;;;;;6.75;2.20;;;;;;;;;;5022786;28;20360;-80
2022/09/23 00:18:36;;;;;;;5.53;2.03;;;;;;;;;;5022158;28;20112;-79
2022/09/23 00:21:04;;;;;;;5.43;1.90;;;;;;;;;;5029792;28;20117;-79
2022/09/23 00:23:30;;;;;;;8.07;1.70;;;;;;;;;;5030988;28;20036;-80
2022/09/23 00:25:57;;;;;;;4.90;1.60;;;;;;;;;;5022066;28;20502;-80
2022/09/23 00:28:23;;;;;;;4.53;1.58;;;;;;;;;;5023927;28;20040;-80
2022/09/23 00:30:49;;;;;;;5.32;1.90;;;;;;;;;;5023143;28;20045;-80
2022/09/23 00:33:15;;;;;;;5.68;1.73;;;;;;;;;;5025547;28;20482;-80
2022/09/23 00:35:41;;;;;;;6.72;1.98;;;;;;;;;;5029921;28;20567;-79
2022/09/23 00:38:07;;;;;;;6.70;1.65;;;;;;;;;;5024438;28;20038;-80
2022/09/23 00:40:35;;;;;;;9.38;2.00;;;;;;;;;;5020460;28;20038;-79
2022/09/23 00:43:01;;;;;;;6.30;1.90;;;;;;;;;;5025071;28;20694;-80
2022/09/23 00:45:29;;;;;;;4.40;1.60;;;;;;;;;;5021931;28;20045;-80
2022/09/23 00:47:57;;;;;;;4.35;1.52;;;;;;;;;;5019743;28;20044;-80
2022/09/23 00:50:31;;;;;;;5.38;1.98;;;;;;;;;;5021253;28;20113;-79
2022/09/23 00:52:58;;;;;;;7.45;2.50;;;;;;;;;;5011825;28;20117;-80
2022/09/23 00:55:27;;;;;;;4.38;1.70;;;;;;;;;;5016726;28;20382;-80
2022/09/23 00:57:55;;;;;;;6.28;1.50;;;;;;;;;;5029601;28;20107;-80
2022/09/23 01:00:21;;;;;;;5.35;1.70;;;;;;;;;;5020875;28;20034;-80
2022/09/23 01:02:47;;;;;;;4.63;1.63;;;;;;;;;;5023399;28;20048;-80
2022/09/23 01:05:14;;;;;;;6.07;1.90;;;;;;;;;;5022051;28;20105;-80
2022/09/23 01:07:40;;;;;;;6.88;1.83;;;;;;;;;;5025229;28;20085;-80
2022/09/23 01:10:07;;;;;;;5.80;1.67;;;;;;;;;;5028486;28;20025;-80
2022/09/23 01:12:33;;;;;;;4.68;1.70;;;;;;;;;;5030439;28;20037;-80
2022/09/23 01:15:05;;;;;;;4.65;1.67;;;;;;;;;;5021120;28;20084;-80
2022/09/23 01:17:40;;;;;;;5.85;1.58;;;;;;;;;;5024749;28;20045;-80
2022/09/23 01:20:12;;;;;;;6.75;1.70;;;;;;;;;;5028143;28;20427;-80
2022/09/23 01:22:56;;;;;;;6.07;1.75;;;;;;;;;;5023605;28;20069;-80
2022/09/23 01:25:48;;;;;;;4.25;1.65;;;;;;;;;;5026559;28;20132;-80
2022/09/23 01:28:14;;;;;;;6.07;2.00;;;;;;;;;;5029609;28;20067;-79
2022/09/23 01:31:06;;;;;;;5.55;1.70;;;;;;;;;;5022629;28;20471;-79
2022/09/23 01:33:37;;;;;;;5.90;2.30;;;;;;;;;;5021460;28;22115;-79
2022/09/23 01:36:12;;;;;;;7.32;2.78;;;;;;;;;;5021528;28;20103;-80
2022/09/23 01:38:38;;;;;;;7.72;1.92;;;;;;;;;;5023140;28;20421;-80
2022/09/23 01:41:08;;;;;;;5.70;1.88;;;;;;;;;;5016465;28;20133;-80
2022/09/23 01:43:42;;;;;;;7.72;2.28;;;;;;;;;;5024997;28;20060;-79
2022/09/23 01:46:12;;;;;;;8.15;2.10;;;;;;;;;;5026461;28;20026;-80
2022/09/23 01:48:42;;;;;;;4.07;1.98;;;;;;;;;;5027388;28;20463;-79
2022/09/23 01:51:12;;;;;;;5.93;1.35;;;;;;;;;;5019754;28;20388;-80
2022/09/23 01:53:44;;;;;;;4.93;1.67;;;;;;;;;;5030058;28;20045;-80
2022/09/23 01:56:16;;;;;;;7.75;2.15;;;;;;;;;;5027584;28;20040;-80
2022/09/23 01:58:42;;;;;;;;;;;;;;;;;;5030595;28;20049;-80
2022/09/23 02:01:08;;;;;;;7.72;2.20;;;;;;;;;;5018295;28;19913;-80
2022/09/23 02:03:41;;;;;;;5.43;2.20;;;;;;;;;;5028333;28;20068;-80
2022/09/23 02:06:06;;;;;;;;;;;;;;;;;;5023242;28;20029;-79
2022/09/23 02:08:35;;;;;;;7.35;2.53;;;;;;;;;;5028036;28;19917;-80
2022/09/23 02:11:04;;;;;;;6.03;2.33;;;;;;;;;;5023005;28;20026;-80
2022/09/23 02:13:39;;;;;;;7.57;1.90;;;;;;;;;;5027291;28;20025;-80
2022/09/23 02:16:13;;;;;;;4.28;1.67;;;;;;;;;;5024366;28;20467;-79
2022/09/23 02:18:59;;;;;;;6.43;1.80;;;;;;;;;;5012770;28;20076;-79
2022/09/23 02:21:28;;;;;;;5.10;2.25;;;;;;;;;;5024260;28;20084;-80
2022/09/23 02:24:00;;;;;;;5.25;2.42;;;;;;;;;;5029524;28;20543;-80
2022/09/23 02:26:33;;;;;;;6.57;2.20;;;;;;;;;;5028198;28;20490;-80
2022/09/23 02:28:59;;;;;;;8.07;2.30;;;;;;;;;;5029687;28;20053;-80
2022/09/23 02:31:34;;;;;;;6.63;2.30;;;;;;;;;;5026445;28;20061;-80
2022/09/23 02:34:06;;;;;;;6.75;2.55;;;;;;;;;;5027085;28;20445;-79
2022/09/23 02:36:35;;;;;;;9.48;2.33;;;;;;;;;;5028149;28;20025;-80
2022/09/23 02:39:03;;;;;;;6.78;2.28;;;;;;;;;;5016510;28;20034;-80
2022/09/23 02:41:32;;;;;;;7.88;2.47;;;;;;;;;;5024422;28;20029;-80
2022/09/23 02:44:07;;;;;;;5.32;2.00;;;;;;;;;;5023725;28;20079;-80
2022/09/23 02:46:33;;;;;;;8.43;2.40;;;;;;;;;;5029105;28;20036;-80
2022/09/23 02:49:03;;;;;;;6.75;2.13;;;;;;;;;;5017084;28;20075;-79
2022/09/23 02:51:30;;;;;;;5.82;2.22;;;;;;;;;;5025557;28;20075;-80
2022/09/23 02:53:57;;;;;;;6.32;2.38;;;;;;;;;;5024962;28;20079;-79
2022/09/23 02:56:23;;;;;;;5.85;1.90;;;;;;;;;;5023860;28;20041;-80
2022/09/23 02:58:50;;;;;;;7.60;3.45;;;;;;;;;;5026162;28;20037;-80
2022/09/23 03:01:37;;;;;;;6.43;1.60;;;;;;;;;;5027354;28;20026;-80
2022/09/23 03:04:19;;;;;;;8.68;1.90;;;;;;;;;;5024567;28;20386;-80
2022/09/23 03:06:57;;;;;;;5.60;1.67;;;;;;;;;;5029370;28;20038;-79
2022/09/23 03:09:31;;;;;;;4.95;1.85;;;;;;;;;;5033065;28;20030;-79
2022/09/23 03:12:04;;;;;;;5.43;2.10;;;;;;;;;;5020857;28;20361;-79
2022/09/23 03:14:41;;;;;;;4.53;1.67;;;;;;;;;;5023969;28;20022;-79
2022/09/23 03:17:14;;;;;;;5.07;1.80;;;;;;;;;;5021336;28;20030;-79
2022/09/23 03:19:40;;;;;;;11.77;3.35;;;;;;;;;;5022357;28;20025;-80
2022/09/23 03:22:11;;;;;;;8.52;2.20;;;;;;;;;;5031240;28;20058;-80
2022/09/23 03:24:38;;;;;;;7.30;2.40;;;;;;;;;;5028458;28;20030;-79
2022/09/23 03:27:12;;;;;;;7.63;2.55;;;;;;;;;;5027373;28;20711;-79
2022/09/23 03:29:39;;;;;;;6.35;2.20;;;;;;;;;;5032350;28;20025;-79
2022/09/23 03:32:06;;;;;;;7.32;2.30;;;;;;;;;;5028515;28;20041;-79
2022/09/23 03:34:33;;;;;;;7.38;2.78;;;;;;;;;;5027839;28;20071;-80
2022/09/23 03:37:02;;;;;;;6.07;2.30;;;;;;;;;;5026631;28;20049;-80
2022/09/23 03:39:31;;;;;;;5.30;2.33;;;;;;;;;;5027698;28;20032;-79
2022/09/23 03:41:59;;;;;;;5.68;2.50;;;;;;;;;;5032138;28;20054;-80
2022/09/23 03:44:27;;;;;;;5.03;1.83;;;;;;;;;;5019999;28;20022;-80
2022/09/23 03:46:53;;;;;;;5.18;2.30;;;;;;;;;;5017226;28;20034;-80
2022/09/23 03:49:26;;;;;;;7.53;2.55;;;;;;;;;;5023468;28;20029;-80
2022/09/23 03:51:52;;;;;;;5.97;3.08;;;;;;;;;;5029282;28;20037;-80
2022/09/23 03:54:19;;;;;;;7.25;2.47;;;;;;;;;;5029391;28;20043;-80
2022/09/23 03:56:46;;;;;;;8.20;2.40;;;;;;;;;;5017031;28;20034;-79
2022/09/23 03:59:13;;;;;;;5.82;2.50;;;;;;;;;;5019890;28;20105;-79
2022/09/23 04:01:40;;;;;;;7.10;2.90;;;;;;;;;;5031166;28;20116;-79
2022/09/23 04:04:07;;;;;;;5.57;2.50;;;;;;;;;;5031863;28;20029;-79
2022/09/23 04:06:33;;;;;;;9.32;3.15;;;;;;;;;;5027469;28;20026;-80
2022/09/23 04:09:00;;;;;;;8.07;2.75;;;;;;;;;;5015569;28;20369;-79
2022/09/23 04:11:26;;;;;;;6.43;2.70;;;;;;;;;;5028482;28;20033;-79
2022/09/23 04:13:52;;;;;;;7.63;2.90;;;;;;;;;;5031809;28;20036;-79
2022/09/23 04:16:18;;;;;;;12.93;3.88;;;;;;;;;;5023361;28;20038;-79
2022/09/23 04:18:44;;;;;;;8.80;3.10;;;;;;;;;;5032103;28;20155;-80
2022/09/23 04:21:10;;;;;;;7.82;3.03;;;;;;;;;;5029157;28;20034;-79
2022/09/23 04:23:36;;;;;;;7.80;2.47;;;;;;;;;;5022455;28;20045;-80
2022/09/23 04:26:04;;;;;;;7.88;2.78;;;;;;;;;;5031376;28;20029;-80
2022/09/23 04:28:30;;;;;;;7.18;3.10;;;;;;;;;;5025801;28;20033;-79
2022/09/23 04:30:56;;;;;;;12.50;3.92;;;;;;;;;;5018721;28;20030;-80
2022/09/23 04:33:23;;;;;;;8.63;3.83;;;;;;;;;;5021857;28;20757;-79
2022/09/23 04:35:52;;;;;;;11.63;4.40;;;;;;;;;;5026891;28;20057;-79
2022/09/23 04:38:18;;;;;;;12.25;4.03;;;;;;;;;;5027838;28;20029;-79
2022/09/23 04:40:44;;;;;;;9.70;2.63;;;;;;;;;;5023725;28;20087;-80
2022/09/23 04:43:12;;;;;;;8.90;2.75;;;;;;;;;;5030623;28;20060;-80
2022/09/23 04:45:38;;;;;;;9.15;2.70;;;;;;;;;;5021285;28;20052;-80
2022/09/23 04:48:04;;;;;;;6.75;2.63;;;;;;;;;;5023433;28;20034;-80
2022/09/23 04:50:32;;;;;;;14.10;4.03;;;;;;;;;;5027826;28;20128;-80
2022/09/23 04:52:58;;;;;;;7.57;3.38;;;;;;;;;;5031169;28;20037;-79
2022/09/23 04:55:24;;;;;;;13.35;3.20;;;;;;;;;;5019639;28;20044;-79
2022/09/23 04:57:50;;;;;;;10.10;3.17;;;;;;;;;;5024298;28;20034;-79
2022/09/23 05:00:17;;;;;;;8.85;3.40;;;;;;;;;;5010697;28;20045;-80
2022/09/23 05:02:46;;;;;;;10.15;3.22;;;;;;;;;;5012717;28;20041;-80
2022/09/23 05:05:13;;;;;;;10.48;2.55;;;;;;;;;;5028818;28;20033;-80
2022/09/23 05:07:39;;;;;;;11.25;3.22;;;;;;;;;;5027842;28;20459;-79
2022/09/23 05:10:06;;;;;;;7.82;2.70;;;;;;;;;;5025458;28;20033;-79
2022/09/23 05:12:32;;;;;;;8.32;3.42;;;;;;;;;;5029971;28;20065;-80
2022/09/23 05:14:58;;;;;;;7.53;3.05;;;;;;;;;;5028798;28;20095;-79
2022/09/23 05:17:24;;;;;;;7.88;3.00;;;;;;;;;;5038608;28;20046;-79
2022/09/23 05:19:50;;;;;;;10.80;2.72;;;;;;;;;;5033508;28;20076;-80
2022/09/23 05:22:16;;;;;;;9.75;3.00;;;;;;;;;;5027760;28;20761;-81
2022/09/23 05:24:42;;;;;;;10.68;3.38;;;;;;;;;;5027630;28;20083;-80
2022/09/23 05:27:08;;;;;;;11.23;3.08;;;;;;;;;;5020365;28;20108;-80
2022/09/23 05:29:34;;;;;;;11.90;3.55;;;;;;;;;;5022992;28;20034;-81
2022/09/23 05:32:00;;;;;;;9.15;2.70;;;;;;;;;;5022426;28;20112;-80
2022/09/23 05:34:26;;;;;;;17.65;3.53;;;;;;;;;;5018244;28;20415;-80
2022/09/23 05:36:53;;;;;;;8.80;2.83;;;;;;;;;;5023313;28;20037;-81
2022/09/23 05:39:19;;;;;;;10.35;3.60;;;;;;;;;;5027318;28;20072;-80
2022/09/23 05:41:45;;;;;;;11.45;3.20;;;;;;;;;;5024534;28;20053;-81
2022/09/23 05:44:11;;;;;;;12.00;3.10;;;;;;;;;;5015913;28;20538;-80
2022/09/23 05:46:37;;;;;;;11.40;3.17;;;;;;;;;;5022498;28;20034;-81
2022/09/23 05:49:04;;;;;;;9.95;2.65;;;;;;;;;;5013848;28;20597;-81
2022/09/23 05:51:31;;;;;;;11.45;2.78;;;;;;;;;;5025171;28;20502;-81
2022/09/23 05:53:57;;;;;;;6.63;2.60;;;;;;;;;;5029354;28;20044;-81
2022/09/23 05:56:24;;;;;;;11.60;3.40;;;;;;;;;;5019078;28;20072;-81
2022/09/23 05:58:51;;;;;;;11.88;3.05;;;;;;;;;;5025864;28;20038;-81
2022/09/23 06:01:25;;;;;;;10.07;3.30;;;;;;;;;;5025656;28;20671;-81
2022/09/23 06:03:51;;;;;;;11.80;3.47;;;;;;;;;;5024414;28;20427;-81
2022/09/23 06:06:18;;;;;;;11.45;3.55;;;;;;;;;;5024190;28;20053;-81
2022/09/23 06:08:45;;;;;;;11.85;4.03;;;;;;;;;;5015691;28;20129;-81
2022/09/23 06:11:11;;;;;;;14.52;4.10;;;;;;;;;;5021613;28;20026;-81
2022/09/23 06:13:37;;;;;;;36.53;6.07;;;;;;;;;;5030369;28;20057;-81
2022/09/23 06:16:11;;;;;;;13.23;4.15;;;;;;;;;;5029109;28;20786;-81
2022/09/23 06:18:39;;;;;;;14.82;3.95;;;;;;;;;;5024403;28;20061;-81
2022/09/23 06:21:05;;;;;;;22.83;4.47;;;;;;;;;;5023423;28;20075;-81
2022/09/23 06:23:31;;;;;;;13.90;4.35;;;;;;;;;;5022673;28;20428;-81
2022/09/23 06:26:00;;;;;;;13.02;4.22;;;;;;;;;;5031042;28;20060;-80
2022/09/23 06:28:34;;;;;;;13.38;4.80;;;;;;;;;;5019344;28;20509;-81
2022/09/23 06:31:01;;;;;;;18.52;4.10;;;;;;;;;;5029000;28;20100;-80
2022/09/23 06:33:27;;;;;;;9.68;3.20;;;;;;;;;;5023631;28;20115;-81
2022/09/23 06:35:57;;;;;;;8.10;2.55;;;;;;;;;;5012627;28;20114;-81
2022/09/23 06:38:23;;;;;;;12.57;3.15;;;;;;;;;;5026400;28;20120;-81
2022/09/23 06:40:50;;;;;;;15.15;3.72;;;;;;;;;;5023928;28;20044;-81
2022/09/23 06:43:16;;;;;;;10.30;3.50;;;;;;;;;;5029765;28;20045;-81
2022/09/23 06:45:42;;;;;;;11.30;3.25;;;;;;;;;;5031656;28;20040;-81
2022/09/23 06:48:08;;;;;;;11.45;2.63;;;;;;;;;;5021395;28;20411;-81
2022/09/23 06:50:35;;;;;;;8.32;1.98;;;;;;;;;;5019673;28;20026;-81
2022/09/23 06:53:02;;;;;;;5.28;2.15;;;;;;;;;;5024138;28;20042;-82
2022/09/23 06:55:28;;;;;;;10.80;3.22;;;;;;;;;;5021730;28;20727;-82
2022/09/23 06:57:54;;;;;;;13.90;3.67;;;;;;;;;;5027251;28;20077;-82
2022/09/23 07:00:20;;;;;;;8.48;2.97;;;;;;;;;;5022596;28;20069;-82
2022/09/23 07:02:47;;;;;;;9.85;2.67;;;;;;;;;;5031169;28;20442;-82
2022/09/23 07:05:15;;;;;;;6.20;2.13;;;;;;;;;;5021207;28;20044;-81
2022/09/23 07:07:41;;;;;;;9.13;2.03;;;;;;;;;;5022535;28;20914;-82
2022/09/23 07:10:07;;;;;;;4.88;1.30;;;;;;;;;;5028503;28;20028;-82
2022/09/23 07:12:33;;;;;;;3.70;1.58;;;;;;;;;;5028103;28;20068;-82
2022/09/23 07:14:59;;;;;;;8.20;1.50;;;;;;;;;;5020488;28;20072;-82
2022/09/23 07:17:26;;;;;;;12.73;1.80;;;;;;;;;;5023313;28;20045;-83
2022/09/23 07:19:53;;;;;;;9.07;2.92;;;;;;;;;;5022317;28;20418;-83
2022/09/23 07:22:20;;;;;;;10.68;3.13;;;;;;;;;;5020986;28;20029;-83
2022/09/23 07:24:46;;;;;;;8.13;2.80;;;;;;;;;;5027698;28;20522;-82
2022/09/23 07:27:15;;;;;;;8.25;3.28;;;;;;;;;;5023665;28;20049;-83
2022/09/23 07:29:42;;;;;;;9.32;2.90;;;;;;;;;;5021669;28;20022;-83
2022/09/23 07:32:08;;;;;;;9.02;3.17;;;;;;;;;;5028621;28;20120;-82
2022/09/23 07:34:35;;;;;;;7.95;2.28;;;;;;;;;;5025653;28;20030;-83
2022/09/23 07:37:01;;;;;;;6.35;2.40;;;;;;;;;;5024426;28;20037;-83
2022/09/23 07:39:27;;;;;;;6.07;1.42;;;;;;;;;;5022191;28;20026;-83
2022/09/23 07:41:54;;;;;;;9.15;1.92;;;;;;;;;;5027419;28;20058;-83
2022/09/23 07:44:20;;;;;;;8.40;2.33;;;;;;;;;;5022560;28;20540;-83
2022/09/23 07:46:47;;;;;;;9.02;2.90;;;;;;;;;;5028169;28;20034;-82
2022/09/23 07:49:13;;;;;;;10.85;2.83;;;;;;;;;;5024133;28;20029;-83
2022/09/23 07:51:40;;;;;;;7.15;2.17;;;;;;;;;;5030227;28;20033;-83
2022/09/23 07:54:07;;;;;;;7.82;2.33;;;;;;;;;;5027722;28;20308;-83
2022/09/23 07:56:34;;;;;;;14.07;2.80;;;;;;;;;;5023217;28;20034;-84
2022/09/23 07:59:02;;;;;;;11.60;2.33;;;;;;;;;;5025883;28;20032;-83
2022/09/23 08:01:32;;;;;;;6.85;2.67;;;;;;;;;;5032405;28;20048;-83
2022/09/23 08:03:59;;;;;;;13.38;3.08;;;;;;;;;;5036767;28;20064;-84
2022/09/23 08:06:25;;;;;;;9.10;2.40;;;;;;;;;;5026041;28;20033;-84
2022/09/23 08:08:51;;;;;;;8.77;2.55;;;;;;;;;;5030200;28;20120;-83
2022/09/23 08:11:17;;;;;;;9.48;2.17;;;;;;;;;;5028847;28;20057;-83
2022/09/23 08:13:43;;;;;;;9.25;2.58;;;;;;;;;;5023391;28;20042;-83
2022/09/23 08:16:09;;;;;;;8.27;2.25;;;;;;;;;;5028990;28;20048;-84
2022/09/23 08:18:35;;;;;;;11.57;3.00;;;;;;;;;;5020776;28;20047;-84
2022/09/23 08:21:02;;;;;;;10.30;2.55;;;;;;;;;;5029574;28;20029;-83
2022/09/23 08:23:32;;;;;;;8.40;1.92;;;;;;;;;;5031602;28;20108;-84
2022/09/23 08:25:59;;;;;;;5.47;1.73;;;;;;;;;;5029060;28;20029;-85
2022/09/23 08:28:25;;;;;;;6.78;1.60;;;;;;;;;;5031571;28;20040;-85
2022/09/23 08:30:51;;;;;;;5.32;1.55;;;;;;;;;;5031398;28;20033;-84
2022/09/23 08:33:18;;;;;;;7.70;1.40;;;;;;;;;;5024554;28;20045;-84
2022/09/23 08:35:44;;;;;;;5.25;1.38;;;;;;;;;;5026484;28;20376;-85
2022/09/23 08:38:10;;;;;;;4.82;1.25;;;;;;;;;;5022619;28;20050;-84
2022/09/23 08:40:38;;;;;;;5.68;1.25;;;;;;;;;;5025803;28;20348;-85
2022/09/23 08:43:14;;;;;;;4.78;1.52;;;;;;;;;;5027340;28;20058;-85
2022/09/23 08:45:41;;;;;;;7.65;1.38;;;;;;;;;;5025105;28;20038;-84
2022/09/23 08:48:21;;;;;;;5.53;1.27;;;;;;;;;;5027880;28;20112;-84
2022/09/23 08:50:49;;;;;;;4.40;1.38;;;;;;;;;;5023375;28;20037;-84
2022/09/23 08:53:26;;;;;;;4.43;1.20;;;;;;;;;;5022297;28;20049;-85
2022/09/23 08:55:54;;;;;;;6.20;1.10;;;;;;;;;;5019572;28;20033;-85
2022/09/23 08:58:33;;;;;;;2.95;0.90;;;;;;;;;;5014641;28;20041;-85
2022/09/23 09:01:15;;;;;;;6.97;1.30;;;;;;;;;;5024008;28;20031;-85
2022/09/23 09:03:52;;;;;;;5.65;1.10;;;;;;;;;;5023985;28;20050;-86
2022/09/23 09:06:20;;;;;;;8.52;1.50;;;;;;;;;;5016648;28;20018;-85
2022/09/23 09:08:52;;;;;;;6.57;1.40;;;;;;;;;;5025515;28;20041;-84
2022/09/23 09:11:19;;;;;;;8.05;1.50;;;;;;;;;;5020638;28;20018;-84
2022/09/23 09:13:53;;;;;;;4.43;1.33;;;;;;;;;;5022129;28;20045;-85
2022/09/23 09:16:22;;;;;;;5.07;1.10;;;;;;;;;;5029173;28;20051;-85
2022/09/23 09:18:52;;;;;;;14.05;1.30;;;;;;;;;;5023310;28;20407;-86
2022/09/23 09:21:22;;;;;;;4.15;1.30;;;;;;;;;;5027692;28;20034;-85
2022/09/23 09:23:53;;;;;;;4.40;1.40;;;;;;;;;;5025551;28;20037;-85
2022/09/23 09:26:22;;;;;;;4.57;1.17;;;;;;;;;;5028561;28;20041;-85
2022/09/23 09:28:57;;;;;;;4.95;1.30;;;;;;;;;;5029332;28;20037;-84
2022/09/23 09:31:25;;;;;;;6.97;1.48;;;;;;;;;;5025009;28;20025;-85
2022/09/23 09:33:57;;;;;;;5.68;1.38;;;;;;;;;;5027849;28;20037;-85
2022/09/23 09:36:35;;;;;;;7.83;1.37;;;;;;;;;;5029014;28;20475;-85
2022/09/23 09:39:02;;;;;;;4.20;1.08;;;;;;;;;;5032910;28;20053;-85
2022/09/23 09:41:31;;;;;;;8.52;1.27;;;;;;;;;;5028203;28;20029;-85
2022/09/23 09:43:59;;;;;;;9.30;1.45;;;;;;;;;;5026067;28;20497;-85
2022/09/23 09:46:25;;;;;;;4.03;1.30;;;;;;;;;;5020755;28;20029;-85
2022/09/23 09:48:52;;;;;;;8.52;1.30;;;;;;;;;;5029408;28;20072;-85
2022/09/23 09:51:22;;;;;;;7.60;1.35;;;;;;;;;;5030584;28;20407;-85
2022/09/23 09:53:52;;;;;;;6.90;1.50;;;;;;;;;;5027920;28;20808;-84
2022/09/23 09:56:26;;;;;;;4.80;1.23;;;;;;;;;;5023827;28;20045;-85
2022/09/23 09:58:58;;;;;;;4.65;1.42;;;;;;;;;;5033736;28;20057;-84
2022/09/23 10:01:24;;;;;;;;;;;;;;;;;;5020641;28;20025;-84
2022/09/23 10:03:50;;;;;;;6.10;1.83;;;;;;;;;;5023408;28;20441;-84
2022/09/23 10:06:24;;;;;;;11.68;1.75;;;;;;;;;;5028173;28;20036;-84
2022/09/23 10:09:05;;;;;;;6.93;2.28;;;;;;;;;;5016519;28;20061;-84
2022/09/23 10:11:32;;;;;;;8.57;1.73;;;;;;;;;;5023975;28;20036;-83
2022/09/23 10:14:08;;;;;;;11.35;1.42;;;;;;;;;;5030272;28;20756;-84
2022/09/23 10:16:34;;;;;;;5.85;1.35;;;;;;;;;;5022313;28;20369;-85
2022/09/23 10:19:01;;;;;;;7.22;1.60;;;;;;;;;;5028534;28;20124;-85
2022/09/23 10:21:33;;;;;;;7.55;1.35;;;;;;;;;;5026905;28;20069;-84
2022/09/23 10:24:00;;;;;;;;;;;;;;;;;;5026993;28;20044;-85
2022/09/23 10:26:29;;;;;;;9.77;1.58;;;;;;;;;;5020106;28;20678;-85
2022/09/23 10:28:57;;;;;;;5.28;1.67;;;;;;;;;;5022645;28;20429;-85
2022/09/23 10:31:23;;;;;;;5.40;1.42;;;;;;;;;;5025605;28;20017;-85
2022/09/23 10:33:51;;;;;;;5.53;1.65;;;;;;;;;;5032416;28;20044;-85
2022/09/23 10:36:18;;;;;;;4.53;1.20;;;;;;;;;;5024068;28;20414;-85
2022/09/23 10:38:44;;;;;;;7.47;1.50;;;;;;;;;;5021287;28;20037;-85
2022/09/23 10:46:45;;;;;;;6.43;1.30;;;;;;;;;;5030512;28;20025;-85
2022/09/23 10:49:14;;;;;;;4.25;1.20;;;;;;;;;;5024073;28;20064;-85
2022/09/23 10:51:40;;;;;;;5.18;1.45;;;;;;;;;;5015983;28;20038;-85
2022/09/23 10:54:06;;;;;;;3.88;1.00;;;;;;;;;;5017018;28;20037;-85
2022/09/23 10:56:52;;;;;;;8.18;1.10;;;;;;;;;;5011992;28;20030;-85
2022/09/23 10:59:18;;;;;;;4.25;1.00;;;;;;;;;;5026256;28;20045;-85
2022/09/23 11:02:05;;;;;;;3.35;1.02;;;;;;;;;;5026740;28;20037;-84
2022/09/23 11:04:40;;;;;;;6.57;1.05;;;;;;;;;;5028126;28;20040;-84
2022/09/23 11:07:06;;;;;;;2.28;0.80;;;;;;;;;;5021209;28;20037;-84
2022/09/23 11:09:44;;;;;;;5.80;1.23;;;;;;;;;;5025332;28;20036;-83
2022/09/23 11:12:16;;;;;;;7.20;1.45;;;;;;;;;;5032642;28;20069;-83
2022/09/23 11:14:42;;;;;;;3.83;1.00;;;;;;;;;;5021824;28;20080;-84
2022/09/23 11:17:13;;;;;;;5.53;1.02;;;;;;;;;;5024121;28;20037;-84
2022/09/23 11:19:59;;;;;;;8.02;1.20;;;;;;;;;;5026986;28;20175;-84
2022/09/23 11:22:44;;;;;;;5.10;1.20;;;;;;;;;;5016737;28;20490;-85
2022/09/23 11:25:30;;;;;;;4.05;1.08;;;;;;;;;;5019401;28;20038;-86
2022/09/23 11:27:56;;;;;;;3.95;1.33;;;;;;;;;;5023231;28;20644;-85
2022/09/23 11:30:29;;;;;;;5.13;1.30;;;;;;;;;;5018668;28;20030;-85
2022/09/23 11:33:02;;;;;;;4.22;1.35;;;;;;;;;;5013810;28;20471;-85
2022/09/23 11:35:40;;;;;;;2.88;1.05;;;;;;;;;;5024454;28;20591;-85
2022/09/23 11:38:17;;;;;;;5.35;1.02;;;;;;;;;;5026194;28;20128;-85
2022/09/23 11:40:45;;;;;;;3.00;0.90;;;;;;;;;;5028060;28;20061;-85
2022/09/23 11:43:23;;;;;;;3.55;0.90;;;;;;;;;;5025280;28;20057;-85
2022/09/23 11:45:57;;;;;;;6.97;1.02;;;;;;;;;;5027140;28;20033;-84
2022/09/23 11:48:27;;;;;;;3.75;1.25;;;;;;;;;;5030145;28;20371;-84
2022/09/23 11:50:57;;;;;;;9.55;1.20;;;;;;;;;;5028600;28;20061;-84
2022/09/23 11:53:23;;;;;;;2.35;0.85;;;;;;;;;;5029240;28;20064;-85
2022/09/23 11:55:53;;;;;;;4.28;1.02;;;;;;;;;;5020476;28;20061;-85
2022/09/23 11:58:22;;;;;;;5.85;0.75;;;;;;;;;;5027215;28;20049;-84
2022/09/23 12:00:54;;;;;;;4.55;0.70;;;;;;;;;;5023027;28;20120;-84
2022/09/23 12:03:22;;;;;;;;;;;;;;;;;;5019035;28;20033;-84
2022/09/23 12:05:50;;;;;;;5.78;0.82;;;;;;;;;;5034864;28;20047;-84
2022/09/23 12:08:18;;;;;;;5.35;1.05;;;;;;;;;;5026786;28;20049;-84
2022/09/23 12:11:04;;;;;;;7.55;0.90;;;;;;;;;;5025917;28;20613;-84
2022/09/23 12:13:39;;;;;;;3.80;0.65;;;;;;;;;;5026584;28;20045;-84
2022/09/23 12:16:05;;;;;;;4.20;0.77;;;;;;;;;;5030560;28;20025;-84
2022/09/23 12:18:34;;;;;;;4.95;0.90;;;;;;;;;;5018258;28;20045;-84
2022/09/23 12:21:27;;;;;;;3.70;0.90;;;;;;;;;;5030083;28;20033;-84
2022/09/23 12:24:00;;;;;;;2.42;0.88;;;;;;;;;;5028280;28;20085;-84
2022/09/23 12:26:26;;;;;;;5.07;0.65;;;;;;;;;;5025118;28;20096;-84
2022/09/23 12:28:54;;;;;;;4.57;0.90;;;;;;;;;;5022168;28;20052;-84
2022/09/23 12:31:29;;;;;;;3.97;1.00;;;;;;;;;;5030884;28;20030;-84
2022/09/23 12:33:56;;;;;;;5.00;0.98;;;;;;;;;;5028558;28;20128;-84
2022/09/23 12:36:35;;;;;;;5.05;1.10;;;;;;;;;;5017526;28;20038;-84
2022/09/23 12:39:03;;;;;;;3.53;1.23;;;;;;;;;;5022330;28;20490;-84
2022/09/23 12:41:35;;;;;;;4.15;0.90;;;;;;;;;;5025178;28;20201;-84
2022/09/23 12:44:13;;;;;;;3.05;0.95;;;;;;;;;;5021764;28;20144;-84
2022/09/23 12:46:43;;;;;;;5.65;1.48;;;;;;;;;;5017916;28;20045;-85
2022/09/23 12:49:38;;;;;;;7.72;1.17;;;;;;;;;;5021191;28;20080;-85
2022/09/23 12:52:10;;;;;;;11.30;1.55;;;;;;;;;;5025826;28;20125;-84
2022/09/23 12:54:37;;;;;;;;;;;;;;;;;;5029232;28;20064;-84
2022/09/23 12:57:03;;;;;;;8.38;1.30;;;;;;;;;;5025187;28;19921;-84
2022/09/23 12:59:49;;;;;;;8.38;1.65;;;;;;;;;;5023087;28;20046;-84
2022/09/23 13:02:27;;;;;;;6.95;1.30;;;;;;;;;;5027148;28;20041;-84
2022/09/23 13:07:46;;;;;;;6.45;1.38;;;;;;;;;;5022513;28;20136;-83
2022/09/23 13:10:12;;;;;;;;;;;;;;;;;;5019460;28;20026;-84
2022/09/23 13:12:39;;;;;;;5.70;1.45;;;;;;;;;;5018208;28;19925;-84
2022/09/23 13:15:13;;;;;;;5.40;1.42;;;;;;;;;;5026667;28;20088;-84
2022/09/23 13:17:39;;;;;;;5.72;1.40;;;;;;;;;;5036219;28;20060;-84
2022/09/23 13:20:25;;;;;;;5.38;0.85;;;;;;;;;;5031038;28;20048;-84
2022/09/23 13:22:51;;;;;;;11.10;1.48;;;;;;;;;;5019017;28;20042;-84
2022/09/23 13:25:32;;;;;;;5.25;1.77;;;;;;;;;;5012357;28;20498;-84
2022/09/23 13:28:01;;;;;;;4.57;1.55;;;;;;;;;;5029096;28;20026;-84
2022/09/23 13:30:27;;;;;;;8.18;1.30;;;;;;;;;;5024084;28;20033;-84
2022/09/23 13:33:02;;;;;;;10.27;1.60;;;;;;;;;;5025639;28;20609;-84
2022/09/23 13:35:35;;;;;;;6.53;1.45;;;;;;;;;;5023808;28;20120;-84
2022/09/23 13:38:24;;;;;;;4.40;1.30;;;;;;;;;;5028867;28;20048;-84
2022/09/23 13:40:53;;;;;;;5.90;1.45;;;;;;;;;;5019192;28;20076;-84
2022/09/23 13:43:25;;;;;;;4.25;1.10;;;;;;;;;;5016573;28;20050;-84
2022/09/23 13:45:51;;;;;;;7.45;1.17;;;;;;;;;;5028476;28;20121;-84
2022/09/23 13:48:18;;;;;;;5.57;0.88;;;;;;;;;;5019707;28;20113;-84
2022/09/23 13:50:47;;;;;;;3.97;1.10;;;;;;;;;;5018890;28;20034;-84
2022/09/23 13:53:17;;;;;;;3.70;1.20;;;;;;;;;;5026236;28;20043;-83
2022/09/23 13:55:43;;;;;;;4.38;1.20;;;;;;;;;;5013311;28;20030;-84
2022/09/23 13:58:17;;;;;;;4.28;1.45;;;;;;;;;;5019825;28;20815;-83
2022/09/23 14:00:43;;;;;;;4.95;1.13;;;;;;;;;;5020180;28;20418;-84
2022/09/23 14:03:23;;;;;;;6.57;1.25;;;;;;;;;;5024048;28;20071;-84
2022/09/23 14:05:49;;;;;;;4.82;1.00;;;;;;;;;;5015880;28;20049;-84
2022/09/23 14:08:15;;;;;;;3.35;1.10;;;;;;;;;;5014948;28;20040;-84
2022/09/23 14:10:44;;;;;;;3.03;1.00;;;;;;;;;;5021919;28;20025;-84
2022/09/23 14:13:17;;;;;;;4.28;1.08;;;;;;;;;;5036963;28;20040;-84
2022/09/23 14:15:45;;;;;;;5.75;1.50;;;;;;;;;;5018798;28;20631;-84
2022/09/23 14:18:13;;;;;;;7.53;1.20;;;;;;;;;;5016585;28;20038;-84
2022/09/23 14:20:47;;;;;;;6.30;1.52;;;;;;;;;;5016010;28;20033;-84
2022/09/23 14:23:13;;;;;;;8.75;1.40;;;;;;;;;;5025250;28;20059;-83
2022/09/23 14:25:40;;;;;;;3.85;1.30;;;;;;;;;;5019157;28;20901;-84
2022/09/23 14:28:06;;;;;;;6.70;1.25;;;;;;;;;;5018418;28;20040;-84
2022/09/23 14:30:32;;;;;;;6.30;1.30;;;;;;;;;;5031414;28;20463;-84
2022/09/23 14:32:58;;;;;;;5.40;1.30;;;;;;;;;;5026046;28;20041;-84
2022/09/23 14:35:27;;;;;;;5.82;1.10;;;;;;;;;;5024969;28;20313;-84
2022/09/23 14:40:53;;;;;;;5.57;1.27;;;;;;;;;;5020237;28;20099;-83
2022/09/23 14:43:26;;;;;;;9.25;1.42;;;;;;;;;;5020563;28;20057;-84
2022/09/23 14:45:54;;;;;;;5.72;1.40;;;;;;;;;;5020072;28;20032;-84
2022/09/23 14:48:23;;;;;;;6.22;1.30;;;;;;;;;;5027224;28;20056;-84
2022/09/23 14:50:50;;;;;;;7.03;1.20;;;;;;;;;;5019614;28;20026;-84
2022/09/23 14:53:25;;;;;;;5.93;1.30;;;;;;;;;;5015604;28;20036;-84
2022/09/23 14:55:58;;;;;;;2.60;0.77;;;;;;;;;;5018076;28;20534;-84
2022/09/23 14:58:29;;;;;;;6.00;1.17;;;;;;;;;;5027028;28;20038;-84
2022/09/23 15:00:55;;;;;;;6.03;1.30;;;;;;;;;;5029998;28;20129;-84
2022/09/23 15:03:22;;;;;;;8.07;1.40;;;;;;;;;;5034195;28;20075;-84
2022/09/23 15:05:49;;;;;;;5.82;1.33;;;;;;;;;;5019948;28;20026;-84
2022/09/23 15:08:21;;;;;;;7.85;1.33;;;;;;;;;;5019125;28;20042;-84